createdAt,value
2022-08-22T00:01:48.859Z,73.65
2022-08-22T00:04:51.723Z,73.88
2022-08-22T00:08:19.893Z,74.08
2022-08-22T00:10:57.722Z,74.34
2022-08-22T00:13:37.010Z,74.76
2022-08-22T00:16:17.719Z,75.00
2022-08-22T00:19:05.712Z,75.13
2022-08-22T00:21:52.938Z,75.41
2022-08-22T00:24:38.878Z,75.12
2022-08-22T00:27:34.133Z,75.46
2022-08-22T00:30:11.519Z,75.58
2022-08-22T00:32:49.488Z,75.76
2022-08-22T00:35:36.461Z,75.77
2022-08-22T00:38:27.073Z,75.81
2022-08-22T00:41:14.408Z,75.87
2022-08-22T00:44:31.540Z,75.72
2022-08-22T00:47:37.055Z,75.91
2022-08-22T00:50:34.334Z,76.24
2022-08-22T00:53:48.145Z,76.13
2022-08-22T00:56:47.204Z,76.29
2022-08-22T00:59:56.570Z,76.14
2022-08-22T01:02:43.725Z,76.15
2022-08-22T01:05:17.178Z,76.47
2022-08-22T01:08:09.491Z,76.72
2022-08-22T01:11:05.247Z,77.00
2022-08-22T01:14:01.721Z,76.80
2022-08-22T01:17:19.144Z,76.97
2022-08-22T01:20:11.210Z,77.39
2022-08-22T01:23:31.279Z,77.57
2022-08-22T01:26:36.308Z,77.50
2022-08-22T01:29:49.530Z,77.40
2022-08-22T01:32:58.511Z,77.76
2022-08-22T01:36:01.342Z,78.07
2022-08-22T01:39:04.759Z,78.16
2022-08-22T01:42:39.236Z,78.17
2022-08-22T01:45:34.933Z,78.18
2022-08-22T01:48:35.586Z,78.61
2022-08-22T01:51:25.822Z,78.71
2022-08-22T01:54:30.065Z,78.76
2022-08-22T01:57:08.127Z,79.14
2022-08-22T01:59:42.503Z,78.99
2022-08-22T02:02:51.612Z,79.35
2022-08-22T02:05:27.603Z,79.25
2022-08-22T02:08:33.464Z,79.68
2022-08-22T02:11:34.842Z,79.58
2022-08-22T02:14:37.898Z,79.59
2022-08-22T02:17:28.335Z,79.66
2022-08-22T02:20:08.893Z,79.81
2022-08-22T02:22:56.759Z,79.88
2022-08-22T02:25:33.156Z,79.87
2022-08-22T02:28:12.755Z,80.06
2022-08-22T02:30:54.325Z,79.99
2022-08-22T02:33:38.718Z,80.09
2022-08-22T02:36:21.174Z,80.14
2022-08-22T02:39:25.935Z,80.22
2022-08-22T02:42:49.377Z,80.29
2022-08-22T02:45:39.733Z,80.19
2022-08-22T02:48:19.484Z,80.24
2022-08-22T02:50:55.058Z,80.22
2022-08-22T02:53:45.596Z,80.18
2022-08-22T02:56:35.045Z,80.59
2022-08-22T02:59:27.283Z,80.52
2022-08-22T03:01:55.880Z,80.67
2022-08-22T03:04:31.790Z,80.71
2022-08-22T03:07:23.041Z,81.00
2022-08-22T03:09:59.362Z,81.33
2022-08-22T03:13:00.780Z,81.52
2022-08-22T03:15:52.891Z,81.83
2022-08-22T03:18:44.656Z,82.10
2022-08-22T03:21:43.050Z,81.92
2022-08-22T03:24:29.478Z,82.00
2022-08-22T03:27:11.721Z,82.29
2022-08-22T03:29:53.587Z,82.48
2022-08-22T03:32:24.333Z,81.59
2022-08-22T03:35:09.550Z,82.64
2022-08-22T03:37:40.491Z,82.90
2022-08-22T03:40:20.259Z,82.89
2022-08-22T03:43:22.976Z,83.12
2022-08-22T03:46:14.906Z,83.15
2022-08-22T03:49:06.278Z,83.20
2022-08-22T03:51:51.390Z,83.24
2022-08-22T03:54:57.857Z,83.15
2022-08-22T03:58:02.341Z,83.38
2022-08-22T04:01:03.659Z,82.94
2022-08-22T04:03:57.671Z,82.95
2022-08-22T04:07:05.899Z,82.98
2022-08-22T04:10:12.722Z,83.27
2022-08-22T04:13:09.880Z,83.15
2022-08-22T04:16:04.256Z,83.18
2022-08-22T04:19:18.510Z,82.99
2022-08-22T04:22:26.770Z,82.95
2022-08-22T04:25:16.840Z,83.20
2022-08-22T04:27:55.878Z,83.01
2022-08-22T04:30:50.620Z,83.22
2022-08-22T04:33:28.396Z,83.45
2022-08-22T04:36:10.120Z,83.66
2022-08-22T04:38:47.781Z,83.06
2022-08-22T04:41:37.897Z,83.47
2022-08-22T04:44:14.328Z,83.63
2022-08-22T04:46:55.462Z,83.65
2022-08-22T04:50:04.513Z,84.01
2022-08-22T04:53:12.372Z,84.19
2022-08-22T04:55:54.119Z,84.53
2022-08-22T04:59:03.765Z,83.92
2022-08-22T05:01:55.663Z,84.42
2022-08-22T05:04:30.542Z,84.77
2022-08-22T05:07:15.922Z,84.95
2022-08-22T05:10:11.630Z,84.81
2022-08-22T05:12:49.618Z,85.03
2022-08-22T05:15:24.421Z,85.38
2022-08-22T05:18:02.830Z,85.45
2022-08-22T05:20:30.904Z,85.73
2022-08-22T05:23:25.062Z,85.95
2022-08-22T05:26:01.118Z,85.76
2022-08-22T05:28:39.808Z,86.01
2022-08-22T05:31:17.042Z,86.17
2022-08-22T05:34:04.522Z,86.15
2022-08-22T05:36:54.461Z,86.09
2022-08-22T05:39:28.094Z,86.06
2022-08-22T05:42:02.955Z,86.30
2022-08-22T05:44:38.125Z,86.52
2022-08-22T05:47:36.447Z,86.60
2022-08-22T05:50:08.880Z,86.46
2022-08-22T05:53:12.831Z,86.86
2022-08-22T05:55:49.214Z,86.71
2022-08-22T05:58:31.740Z,87.05
2022-08-22T06:01:22.803Z,86.84
2022-08-22T06:04:06.960Z,87.26
2022-08-22T06:07:17.414Z,87.30
2022-08-22T06:09:47.722Z,87.34
2022-08-22T06:12:31.835Z,87.71
2022-08-22T06:15:34.609Z,87.47
2022-08-22T06:18:12.766Z,87.77
2022-08-22T06:20:49.389Z,87.75
2022-08-22T06:23:30.004Z,87.80
2022-08-22T06:26:01.339Z,87.69
2022-08-22T06:28:55.228Z,87.42
2022-08-22T06:31:34.477Z,87.33
2022-08-22T06:34:17.275Z,87.26
2022-08-22T06:36:49.769Z,87.72
2022-08-22T06:39:24.977Z,87.19
2022-08-22T06:42:03.516Z,87.57
2022-08-22T06:44:38.919Z,87.77
2022-08-22T06:47:13.001Z,87.80
2022-08-22T06:49:45.473Z,87.47
2022-08-22T06:52:23.345Z,87.69
2022-08-22T06:55:06.148Z,87.94
2022-08-22T06:57:45.334Z,87.46
2022-08-22T07:00:17.115Z,87.68
2022-08-22T07:02:54.665Z,87.67
2022-08-22T07:05:29.503Z,87.91
2022-08-22T07:07:58.017Z,87.48
2022-08-22T07:10:26.050Z,87.75
2022-08-22T07:12:56.890Z,87.13
2022-08-22T07:15:36.604Z,87.01
2022-08-22T07:18:27.315Z,86.82
2022-08-22T07:21:02.797Z,86.63
2022-08-22T07:23:45.983Z,85.98
2022-08-22T07:26:54.389Z,86.11
2022-08-22T07:29:45.624Z,86.02
2022-08-22T07:32:21.002Z,85.69
2022-08-22T07:35:15.822Z,85.24
2022-08-22T07:38:06.374Z,84.75
2022-08-22T07:40:38.567Z,84.17
2022-08-22T07:43:20.983Z,83.98
2022-08-22T07:45:56.617Z,83.15
2022-08-22T07:48:29.944Z,83.24
2022-08-22T07:51:13.567Z,82.58
2022-08-22T07:54:00.910Z,82.91
2022-08-22T07:56:38.044Z,82.52
2022-08-22T07:59:17.145Z,82.41
2022-08-22T08:01:50.019Z,82.31
2022-08-22T08:04:26.105Z,81.38
2022-08-22T08:06:59.527Z,80.43
2022-08-22T08:09:38.762Z,81.05
2022-08-22T08:12:11.050Z,80.60
2022-08-22T08:14:44.351Z,79.85
2022-08-22T08:17:32.342Z,79.89
2022-08-22T08:20:09.012Z,79.34
2022-08-22T08:22:40.702Z,78.74
2022-08-22T08:25:13.163Z,78.08
2022-08-22T08:28:00.275Z,77.27
2022-08-22T08:30:47.505Z,77.79
2022-08-22T08:33:24.865Z,76.01
2022-08-22T08:36:09.966Z,76.41
2022-08-22T08:39:12.557Z,75.22
2022-08-22T08:42:11.950Z,74.82
2022-08-22T08:45:18.694Z,74.56
2022-08-22T08:48:22.561Z,74.54
2022-08-22T08:51:07.345Z,74.78
2022-08-22T08:54:09.214Z,74.41
2022-08-22T08:57:06.771Z,73.42
2022-08-22T09:00:07.619Z,73.57
2022-08-22T09:02:59.423Z,73.75
2022-08-22T09:06:13.289Z,73.92
2022-08-22T09:09:38.556Z,72.37
2022-08-22T09:12:30.169Z,71.21
2022-08-22T09:15:22.181Z,71.72
2022-08-22T09:18:41.371Z,70.49
2022-08-22T09:22:02.858Z,70.53
2022-08-22T09:25:15.594Z,70.04
2022-08-22T09:28:17.306Z,70.02
2022-08-22T09:31:21.928Z,69.57
2022-08-22T09:34:16.913Z,67.63
2022-08-22T09:37:29.711Z,68.63
2022-08-22T09:40:18.843Z,68.53
2022-08-22T09:42:59.282Z,68.53
2022-08-22T09:45:57.487Z,65.34
2022-08-22T09:48:56.398Z,64.94
2022-08-22T09:51:44.914Z,64.51
2022-08-22T09:54:31.409Z,64.96
2022-08-22T09:57:13.865Z,64.57
2022-08-22T09:59:44.716Z,63.03
2022-08-22T10:02:36.242Z,61.67
2022-08-22T10:05:04.014Z,61.63
2022-08-22T10:08:01.967Z,61.34
2022-08-22T10:11:13.424Z,61.72
2022-08-22T10:14:04.959Z,60.70
2022-08-22T10:17:05.587Z,62.30
2022-08-22T10:19:44.409Z,58.87
2022-08-22T10:23:21.040Z,58.71
2022-08-22T10:26:12.945Z,56.81
2022-08-22T10:29:09.048Z,56.62
2022-08-22T10:32:16.361Z,55.81
2022-08-22T10:34:53.339Z,55.13
2022-08-22T10:37:48.987Z,55.58
2022-08-22T10:40:37.939Z,55.09
2022-08-22T10:43:20.069Z,54.42
2022-08-22T10:46:13.834Z,54.32
2022-08-22T10:49:08.043Z,53.90
2022-08-22T10:51:56.501Z,54.27
2022-08-22T10:55:05.709Z,53.67
2022-08-22T10:57:59.021Z,54.11
2022-08-22T11:00:46.046Z,52.99
2022-08-22T11:03:51.561Z,53.98
2022-08-22T11:06:48.907Z,52.22
2022-08-22T11:09:31.192Z,53.15
2022-08-22T11:12:37.253Z,53.65
2022-08-22T11:15:34.751Z,50.37
2022-08-22T11:18:57.999Z,48.75
2022-08-22T11:22:21.614Z,49.89
2022-08-22T11:25:29.191Z,49.43
2022-08-22T11:28:25.330Z,50.01
2022-08-22T11:31:09.523Z,49.32
2022-08-22T11:33:59.239Z,48.61
2022-08-22T11:36:47.354Z,49.18
2022-08-22T11:40:06.119Z,48.58
2022-08-22T11:43:18.229Z,47.60
2022-08-22T11:45:51.855Z,47.06
2022-08-22T11:49:02.462Z,46.65
2022-08-22T11:51:51.772Z,47.69
2022-08-22T11:54:34.828Z,46.58
2022-08-22T11:57:17.612Z,46.09
2022-08-22T11:59:44.950Z,45.09
2022-08-22T12:02:55.058Z,45.39
2022-08-22T12:05:30.818Z,45.28
2022-08-22T12:08:13.412Z,45.70
2022-08-22T12:11:03.440Z,43.51
2022-08-22T12:13:52.551Z,44.23
2022-08-22T12:16:49.290Z,45.14
2022-08-22T12:20:12.755Z,44.56
2022-08-22T12:23:18.155Z,43.60
2022-08-22T12:26:03.685Z,44.16
2022-08-22T12:29:34.176Z,43.59
2022-08-22T12:33:02.181Z,43.11
2022-08-22T12:35:37.450Z,44.66
2022-08-22T12:38:39.915Z,43.33
2022-08-22T12:41:38.317Z,43.17
2022-08-22T12:44:48.640Z,43.76
2022-08-22T12:47:53.591Z,44.21
2022-08-22T12:51:17.581Z,43.14
2022-08-22T12:53:55.747Z,43.04
2022-08-22T12:57:23.744Z,43.55
2022-08-22T13:00:22.965Z,43.50
2022-08-22T13:02:56.582Z,43.60
2022-08-22T13:05:29.357Z,41.93
2022-08-22T13:08:05.373Z,41.57
2022-08-22T13:10:40.200Z,42.25
2022-08-22T13:13:14.514Z,41.70
2022-08-22T13:15:59.739Z,42.46
2022-08-22T13:18:53.432Z,42.80
2022-08-22T13:21:34.674Z,42.00
2022-08-22T13:24:16.783Z,42.20
2022-08-22T13:27:02.251Z,42.71
2022-08-22T13:29:57.396Z,41.60
2022-08-22T13:32:49.922Z,42.66
2022-08-22T13:35:38.315Z,43.14
2022-08-22T13:38:21.019Z,43.22
2022-08-22T13:40:58.218Z,42.53
2022-08-22T13:43:37.945Z,42.35
2022-08-22T13:46:11.181Z,42.58
2022-08-22T13:49:00.562Z,42.69
2022-08-22T13:51:45.302Z,41.80
2022-08-22T13:54:38.947Z,42.98
2022-08-22T13:57:43.560Z,42.92
2022-08-22T14:01:08.846Z,43.28
2022-08-22T14:04:00.855Z,42.90
2022-08-22T14:06:41.173Z,42.45
2022-08-22T14:09:39.741Z,42.36
2022-08-22T14:12:22.952Z,42.68
2022-08-22T14:14:59.535Z,42.32
2022-08-22T14:17:42.848Z,42.51
2022-08-22T14:20:31.954Z,42.36
2022-08-22T14:23:29.323Z,42.69
2022-08-22T14:25:57.692Z,43.03
2022-08-22T14:28:33.353Z,43.43
2022-08-22T14:31:13.756Z,42.60
2022-08-22T14:33:52.263Z,42.38
2022-08-22T14:36:26.929Z,41.59
2022-08-22T14:39:16.521Z,41.48
2022-08-22T14:42:03.927Z,41.33
2022-08-22T14:44:44.372Z,41.42
2022-08-22T14:47:54.568Z,41.74
2022-08-22T14:50:42.132Z,41.15
2022-08-22T14:53:32.280Z,40.54
2022-08-22T14:56:15.374Z,40.76
2022-08-22T14:58:53.587Z,40.99
2022-08-22T15:01:26.322Z,40.15
2022-08-22T15:04:23.946Z,40.96
2022-08-22T15:06:58.617Z,41.18
2022-08-22T15:09:40.488Z,40.67
2022-08-22T15:12:35.626Z,40.62
2022-08-22T15:15:49.439Z,40.43
2022-08-22T15:18:27.844Z,39.13
2022-08-22T15:21:24.538Z,38.41
2022-08-22T15:23:59.647Z,37.52
2022-08-22T15:26:40.003Z,38.34
2022-08-22T15:29:20.599Z,39.00
2022-08-22T15:31:56.583Z,38.72
2022-08-22T15:34:29.328Z,38.46
2022-08-22T15:37:07.851Z,38.00
2022-08-22T15:40:00.542Z,38.58
2022-08-22T15:42:40.056Z,38.36
2022-08-22T15:45:20.270Z,37.57
2022-08-22T15:47:53.680Z,37.57
2022-08-22T15:50:56.848Z,38.01
2022-08-22T15:54:16.065Z,38.35
2022-08-22T15:57:24.425Z,38.62
2022-08-22T16:00:01.505Z,38.18
2022-08-22T16:02:40.005Z,38.22
2022-08-22T16:05:10.543Z,37.98
2022-08-22T16:07:58.438Z,38.21
2022-08-22T16:10:25.790Z,38.48
2022-08-22T16:13:27.347Z,38.55
2022-08-22T16:16:12.707Z,38.43
2022-08-22T16:18:40.178Z,39.30
2022-08-22T16:21:27.885Z,39.03
2022-08-22T16:23:58.435Z,39.27
2022-08-22T16:26:32.064Z,39.51
2022-08-22T16:28:59.494Z,39.75
2022-08-22T16:31:35.999Z,39.65
2022-08-22T16:34:26.821Z,38.57
2022-08-22T16:37:34.609Z,38.28
2022-08-22T16:40:02.451Z,37.89
2022-08-22T16:43:09.755Z,38.27
2022-08-22T16:45:41.855Z,38.67
2022-08-22T16:48:34.632Z,38.43
2022-08-22T16:51:14.716Z,39.04
2022-08-22T16:54:13.181Z,38.76
2022-08-22T16:56:45.737Z,38.55
2022-08-22T16:59:40.986Z,38.67
2022-08-22T17:02:45.113Z,38.64
2022-08-22T17:05:50.902Z,38.75
2022-08-22T17:08:35.113Z,38.54
2022-08-22T17:11:45.082Z,38.90
2022-08-22T17:14:53.758Z,38.85
2022-08-22T17:17:51.254Z,38.46
2022-08-22T17:20:59.673Z,38.55
2022-08-22T17:24:14.085Z,38.30
2022-08-22T17:27:12.169Z,38.50
2022-08-22T17:29:58.696Z,38.28
2022-08-22T17:33:17.709Z,38.70
2022-08-22T17:35:59.924Z,38.81
2022-08-22T17:39:16.690Z,39.35
2022-08-22T17:42:21.409Z,39.51
2022-08-22T17:45:49.583Z,39.65
2022-08-22T17:49:12.784Z,40.26
2022-08-22T17:52:11.059Z,40.34
2022-08-22T17:54:52.367Z,40.50
2022-08-22T17:57:30.168Z,40.77
2022-08-22T18:00:12.030Z,40.70
2022-08-22T18:02:54.839Z,40.91
2022-08-22T18:05:38.088Z,41.41
2022-08-22T18:11:58.503Z,42.66
2022-08-22T18:14:44.720Z,42.83
2022-08-22T18:17:49.382Z,44.01
2022-08-22T18:20:34.539Z,44.82
2022-08-22T18:23:39.263Z,44.92
2022-08-22T18:26:27.196Z,45.09
2022-08-22T18:29:00.724Z,45.61
2022-08-22T18:31:40.456Z,46.05
2022-08-22T18:34:31.196Z,46.48
2022-08-22T18:37:18.496Z,46.91
2022-08-22T18:40:01.289Z,47.15
2022-08-22T18:42:59.888Z,47.21
2022-08-22T18:45:45.779Z,47.65
2022-08-22T18:48:36.855Z,48.24
2022-08-22T18:51:34.976Z,48.47
2022-08-22T18:54:06.781Z,48.14
2022-08-22T18:57:06.693Z,49.54
2022-08-22T19:00:01.598Z,49.82
2022-08-22T19:03:20.751Z,49.55
2022-08-22T19:06:15.604Z,49.77
2022-08-22T19:09:00.846Z,50.58
2022-08-22T19:11:55.892Z,51.29
2022-08-22T19:14:51.826Z,52.03
2022-08-22T19:17:46.547Z,52.41
2022-08-22T19:20:52.459Z,52.94
2022-08-22T19:23:31.997Z,53.02
2022-08-22T19:26:24.527Z,53.19
2022-08-22T19:29:00.158Z,53.43
2022-08-22T19:31:37.218Z,54.13
2022-08-22T19:34:25.657Z,54.30
2022-08-22T19:37:11.504Z,54.44
2022-08-22T19:40:05.261Z,55.01
2022-08-22T19:42:38.111Z,54.80
2022-08-22T19:45:22.102Z,55.32
2022-08-22T19:48:13.130Z,55.32
2022-08-22T19:50:43.648Z,55.46
2022-08-22T19:53:34.613Z,55.46
2022-08-22T19:56:10.814Z,55.80
2022-08-22T19:59:00.091Z,55.83
2022-08-22T20:01:50.857Z,56.13
2022-08-22T20:04:35.337Z,56.25
2022-08-22T20:07:48.646Z,56.05
2022-08-22T20:10:23.723Z,55.82
2022-08-22T20:13:18.418Z,55.90
2022-08-22T20:16:19.755Z,56.01
2022-08-22T20:19:18.379Z,57.09
2022-08-22T20:21:56.784Z,57.14
2022-08-22T20:24:39.581Z,56.77
2022-08-22T20:27:29.452Z,56.71
2022-08-22T20:30:18.147Z,56.56
2022-08-22T20:33:25.466Z,56.47
2022-08-22T20:35:59.143Z,56.00
2022-08-22T20:38:41.383Z,56.44
2022-08-22T20:41:45.446Z,56.31
2022-08-22T20:44:41.679Z,56.22
2022-08-22T20:47:21.242Z,56.07
2022-08-22T20:49:54.619Z,55.83
2022-08-22T20:52:30.103Z,55.81
2022-08-22T20:55:30.517Z,55.78
2022-08-22T20:58:05.954Z,55.90
2022-08-22T21:00:44.468Z,55.91
2022-08-22T21:03:32.711Z,55.55
2022-08-22T21:06:34.924Z,55.61
2022-08-22T21:09:41.007Z,55.82
2022-08-22T21:12:10.604Z,55.62
2022-08-22T21:14:46.149Z,56.06
2022-08-22T21:17:35.464Z,56.06
2022-08-22T21:20:21.221Z,56.40
2022-08-22T21:22:50.432Z,56.46
2022-08-22T21:25:18.043Z,56.84
2022-08-22T21:27:48.456Z,56.87
2022-08-22T21:30:25.537Z,57.51
2022-08-22T21:32:56.155Z,57.02
2022-08-22T21:35:33.891Z,57.22
2022-08-22T21:38:02.238Z,57.71
2022-08-22T21:40:35.873Z,57.41
2022-08-22T21:43:10.970Z,57.41
2022-08-22T21:45:38.399Z,57.29
2022-08-22T21:48:41.173Z,56.71
2022-08-22T21:51:45.909Z,56.70
2022-08-22T21:54:29.459Z,56.79
2022-08-22T21:57:20.238Z,56.96
2022-08-22T21:59:58.989Z,57.38
2022-08-22T22:02:39.952Z,57.21
2022-08-22T22:05:16.175Z,57.85
2022-08-22T22:07:47.479Z,58.08
2022-08-22T22:10:19.690Z,58.71
2022-08-22T22:12:51.857Z,59.10
2022-08-22T22:15:24.641Z,59.03
2022-08-22T22:17:53.570Z,59.33
2022-08-22T22:20:26.223Z,59.21
2022-08-22T22:22:55.188Z,59.48
2022-08-22T22:25:39.883Z,60.01
2022-08-22T22:28:17.218Z,60.46
2022-08-22T22:30:53.373Z,60.66
2022-08-22T22:33:27.027Z,60.91
2022-08-22T22:35:59.150Z,61.29
2022-08-22T22:38:26.779Z,61.22
2022-08-22T22:40:54.335Z,61.44
2022-08-22T22:43:21.785Z,61.45
2022-08-22T22:45:49.749Z,61.65
2022-08-22T22:48:24.235Z,61.83
2022-08-22T22:50:53.767Z,62.03
2022-08-22T22:53:33.681Z,62.22
2022-08-22T22:56:10.427Z,62.42
2022-08-22T22:58:40.017Z,62.40
2022-08-22T23:01:16.750Z,62.44
2022-08-22T23:03:47.355Z,62.79
2022-08-22T23:06:19.865Z,62.94
2022-08-22T23:08:48.438Z,63.13
2022-08-22T23:11:24.447Z,63.38
2022-08-22T23:13:53.337Z,63.21
2022-08-22T23:16:28.489Z,63.60
2022-08-22T23:18:56.772Z,63.86
2022-08-22T23:21:28.966Z,63.82
2022-08-22T23:23:58.975Z,63.92
2022-08-22T23:26:28.207Z,64.26
2022-08-22T23:28:57.299Z,64.18
2022-08-22T23:31:41.025Z,64.52
2022-08-22T23:34:15.861Z,64.55
2022-08-22T23:36:46.713Z,64.98
2022-08-22T23:39:16.532Z,65.10
2022-08-22T23:41:46.577Z,65.40
2022-08-22T23:44:19.330Z,65.65
2022-08-22T23:46:47.510Z,65.92
2022-08-22T23:49:15.976Z,66.08
2022-08-22T23:51:44.727Z,65.90
2022-08-22T23:54:13.327Z,66.23
2022-08-22T23:56:54.915Z,66.06
2022-08-22T23:59:30.876Z,66.44
